US Aviators Van Nuys Flight School Los Angeles Pilot school at Van Nuys Simulator Flight Training Profesional Pilot Instruction Learn to Fly

U.S. Aviators

Learn to fly here! (818) 779-2105

Weather at Van Nuys Airport

Observed:Fri Dec 19, 20:51 PST
Age:61 min ago
Wind:Calm
Visibility:10 miles
Clouds:Clear skies
Temperature:54°F (12°C)
Dewpoint:48°F (9°C)
Humidity:82%
Barometer:1022 hPa (30.17 in Hg)

METAR

KVNY 200451Z 00000KT 10SM CLR 12/09 A3017 RMK AO2 SLP216 T01220089